sensor_id;sensor_type;location;lat;lon;timestamp;temperature;humidity
31387;DHT22;69978;50.096;8.448;2024-01-30T00:00:15;4.10;99.90
31387;DHT22;69978;50.096;8.448;2024-01-30T00:02:41;4.20;99.90
31387;DHT22;69978;50.096;8.448;2024-01-30T00:05:08;4.20;99.90
31387;DHT22;69978;50.096;8.448;2024-01-30T00:07:34;4.20;99.90
31387;DHT22;69978;50.096;8.448;2024-01-30T00:09:59;4.20;99.90
31387;DHT22;69978;50.096;8.448;2024-01-30T00:12:25;4.10;99.90
31387;DHT22;69978;50.096;8.448;2024-01-30T00:14:51;4.10;99.90
31387;DHT22;69978;50.096;8.448;2024-01-30T00:17:17;4.20;99.90
31387;DHT22;69978;50.096;8.448;2024-01-30T00:19:44;4.10;99.90
31387;DHT22;69978;50.096;8.448;2024-01-30T00:22:10;4.10;99.90
31387;DHT22;69978;50.096;8.448;2024-01-30T00:24:35;4.00;99.90
31387;DHT22;69978;50.096;8.448;2024-01-30T00:27:01;4.00;99.90
31387;DHT22;69978;50.096;8.448;2024-01-30T00:29:26;4.00;99.90
31387;DHT22;69978;50.096;8.448;2024-01-30T00:31:55;4.10;99.90
31387;DHT22;69978;50.096;8.448;2024-01-30T00:34:21;4.00;99.90
31387;DHT22;69978;50.096;8.448;2024-01-30T00:36:47;4.00;99.90
31387;DHT22;69978;50.096;8.448;2024-01-30T00:39:12;4.00;99.90
31387;DHT22;69978;50.096;8.448;2024-01-30T00:41:40;4.00;99.90
31387;DHT22;69978;50.096;8.448;2024-01-30T00:44:06;4.00;99.90
31387;DHT22;69978;50.096;8.448;2024-01-30T00:46:32;4.00;99.90
31387;DHT22;69978;50.096;8.448;2024-01-30T00:48:57;3.90;99.90
31387;DHT22;69978;50.096;8.448;2024-01-30T00:51:23;3.90;99.90
31387;DHT22;69978;50.096;8.448;2024-01-30T00:53:48;3.90;99.90
31387;DHT22;69978;50.096;8.448;2024-01-30T00:56:14;3.80;99.90
31387;DHT22;69978;50.096;8.448;2024-01-30T00:58:43;3.80;99.90
31387;DHT22;69978;50.096;8.448;2024-01-30T01:01:09;3.80;99.90
31387;DHT22;69978;50.096;8.448;2024-01-30T01:03:34;3.80;99.90
31387;DHT22;69978;50.096;8.448;2024-01-30T01:06:00;3.80;99.90
31387;DHT22;69978;50.096;8.448;2024-01-30T01:08:26;3.80;99.90
31387;DHT22;69978;50.096;8.448;2024-01-30T01:10:52;3.80;99.90
31387;DHT22;69978;50.096;8.448;2024-01-30T01:13:17;3.80;99.90
31387;DHT22;69978;50.096;8.448;2024-01-30T01:15:43;3.70;99.90
31387;DHT22;69978;50.096;8.448;2024-01-30T01:18:09;3.60;99.90
31387;DHT22;69978;50.096;8.448;2024-01-30T01:20:34;3.60;99.90
31387;DHT22;69978;50.096;8.448;2024-01-30T01:23:00;3.60;99.90
31387;DHT22;69978;50.096;8.448;2024-01-30T01:25:25;3.60;99.90
31387;DHT22;69978;50.096;8.448;2024-01-30T01:27:51;3.60;99.90
31387;DHT22;69978;50.096;8.448;2024-01-30T01:30:18;3.50;99.90
31387;DHT22;69978;50.096;8.448;2024-01-30T01:32:51;3.50;99.90
31387;DHT22;69978;50.096;8.448;2024-01-30T01:35:23;3.50;99.90
31387;DHT22;69978;50.096;8.448;2024-01-30T01:37:52;3.50;99.90
31387;DHT22;69978;50.096;8.448;2024-01-30T01:40:26;3.50;99.90
31387;DHT22;69978;50.096;8.448;2024-01-30T01:42:52;3.50;99.90
31387;DHT22;69978;50.096;8.448;2024-01-30T01:45:19;3.50;99.90
31387;DHT22;69978;50.096;8.448;2024-01-30T01:47:47;3.40;99.90
31387;DHT22;69978;50.096;8.448;2024-01-30T01:50:14;3.40;99.90
31387;DHT22;69978;50.096;8.448;2024-01-30T01:52:41;3.30;99.90
31387;DHT22;69978;50.096;8.448;2024-01-30T01:55:07;3.30;99.90
31387;DHT22;69978;50.096;8.448;2024-01-30T01:57:34;3.40;99.90
31387;DHT22;69978;50.096;8.448;2024-01-30T02:00:01;3.40;99.90
31387;DHT22;69978;50.096;8.448;2024-01-30T02:02:30;3.30;99.90
31387;DHT22;69978;50.096;8.448;2024-01-30T02:04:57;3.40;99.90
31387;DHT22;69978;50.096;8.448;2024-01-30T02:07:24;3.30;99.90
31387;DHT22;69978;50.096;8.448;2024-01-30T02:09:49;3.20;99.90
31387;DHT22;69978;50.096;8.448;2024-01-30T02:12:15;3.20;99.90
31387;DHT22;69978;50.096;8.448;2024-01-30T02:14:47;3.20;99.90
31387;DHT22;69978;50.096;8.448;2024-01-30T02:17:14;3.20;99.90
31387;DHT22;69978;50.096;8.448;2024-01-30T02:19:40;3.20;99.90
31387;DHT22;69978;50.096;8.448;2024-01-30T02:22:06;3.20;99.90
31387;DHT22;69978;50.096;8.448;2024-01-30T02:24:32;3.20;99.90
31387;DHT22;69978;50.096;8.448;2024-01-30T02:26:58;3.10;99.90
31387;DHT22;69978;50.096;8.448;2024-01-30T02:29:23;3.20;99.90
31387;DHT22;69978;50.096;8.448;2024-01-30T02:31:49;3.20;99.90
31387;DHT22;69978;50.096;8.448;2024-01-30T02:34:15;3.10;99.90
31387;DHT22;69978;50.096;8.448;2024-01-30T02:36:43;3.10;99.90
31387;DHT22;69978;50.096;8.448;2024-01-30T02:39:09;3.00;99.90
31387;DHT22;69978;50.096;8.448;2024-01-30T02:41:35;3.00;99.90
31387;DHT22;69978;50.096;8.448;2024-01-30T02:44:02;3.10;99.90
31387;DHT22;69978;50.096;8.448;2024-01-30T02:46:28;3.00;99.90
31387;DHT22;69978;50.096;8.448;2024-01-30T02:48:54;2.90;99.90
31387;DHT22;69978;50.096;8.448;2024-01-30T02:51:19;2.90;99.90
31387;DHT22;69978;50.096;8.448;2024-01-30T02:53:45;2.90;99.90
31387;DHT22;69978;50.096;8.448;2024-01-30T02:56:10;2.90;99.90
31387;DHT22;69978;50.096;8.448;2024-01-30T02:58:37;3.00;99.90
31387;DHT22;69978;50.096;8.448;2024-01-30T03:01:03;2.90;99.90
31387;DHT22;69978;50.096;8.448;2024-01-30T03:03:28;2.90;99.90
31387;DHT22;69978;50.096;8.448;2024-01-30T03:05:54;2.90;99.90
31387;DHT22;69978;50.096;8.448;2024-01-30T03:08:20;2.90;99.90
31387;DHT22;69978;50.096;8.448;2024-01-30T03:10:46;2.80;99.90
31387;DHT22;69978;50.096;8.448;2024-01-30T03:13:12;2.90;99.90
31387;DHT22;69978;50.096;8.448;2024-01-30T03:15:37;2.80;99.90
31387;DHT22;69978;50.096;8.448;2024-01-30T03:18:03;2.90;99.90
31387;DHT22;69978;50.096;8.448;2024-01-30T03:20:29;2.90;99.90
31387;DHT22;69978;50.096;8.448;2024-01-30T03:22:55;2.80;99.90
31387;DHT22;69978;50.096;8.448;2024-01-30T03:25:21;2.90;99.90
31387;DHT22;69978;50.096;8.448;2024-01-30T03:27:47;2.90;99.90
31387;DHT22;69978;50.096;8.448;2024-01-30T03:30:12;2.80;99.90
31387;DHT22;69978;50.096;8.448;2024-01-30T03:32:38;2.90;99.90
31387;DHT22;69978;50.096;8.448;2024-01-30T03:35:04;2.80;99.90
31387;DHT22;69978;50.096;8.448;2024-01-30T03:37:30;2.80;99.90
31387;DHT22;69978;50.096;8.448;2024-01-30T03:39:56;2.80;99.90
31387;DHT22;69978;50.096;8.448;2024-01-30T03:42:22;2.70;99.90
31387;DHT22;69978;50.096;8.448;2024-01-30T03:44:48;2.70;99.90
31387;DHT22;69978;50.096;8.448;2024-01-30T03:47:13;2.70;99.90
31387;DHT22;69978;50.096;8.448;2024-01-30T03:49:40;2.60;99.90
31387;DHT22;69978;50.096;8.448;2024-01-30T03:52:05;2.60;99.90
31387;DHT22;69978;50.096;8.448;2024-01-30T03:54:31;2.60;99.90
31387;DHT22;69978;50.096;8.448;2024-01-30T03:56:56;2.70;99.90
31387;DHT22;69978;50.096;8.448;2024-01-30T03:59:22;2.70;99.90
31387;DHT22;69978;50.096;8.448;2024-01-30T04:01:52;2.70;99.90
31387;DHT22;69978;50.096;8.448;2024-01-30T04:04:18;2.70;99.90
31387;DHT22;69978;50.096;8.448;2024-01-30T04:06:44;2.60;99.90
31387;DHT22;69978;50.096;8.448;2024-01-30T04:09:11;2.60;99.90
31387;DHT22;69978;50.096;8.448;2024-01-30T04:11:36;2.60;99.90
31387;DHT22;69978;50.096;8.448;2024-01-30T04:14:02;2.60;99.90
31387;DHT22;69978;50.096;8.448;2024-01-30T04:16:28;2.60;99.90
31387;DHT22;69978;50.096;8.448;2024-01-30T04:18:53;2.60;99.90
31387;DHT22;69978;50.096;8.448;2024-01-30T04:21:21;2.60;99.90
31387;DHT22;69978;50.096;8.448;2024-01-30T04:23:46;2.60;99.90
31387;DHT22;69978;50.096;8.448;2024-01-30T04:26:12;2.50;99.90
31387;DHT22;69978;50.096;8.448;2024-01-30T04:28:38;2.60;99.90
31387;DHT22;69978;50.096;8.448;2024-01-30T04:31:03;2.60;99.90
31387;DHT22;69978;50.096;8.448;2024-01-30T04:33:29;2.70;99.90
31387;DHT22;69978;50.096;8.448;2024-01-30T04:35:54;2.60;99.90
31387;DHT22;69978;50.096;8.448;2024-01-30T04:38:20;2.50;99.90
31387;DHT22;69978;50.096;8.448;2024-01-30T04:40:45;2.50;99.90
31387;DHT22;69978;50.096;8.448;2024-01-30T04:43:11;2.50;99.90
31387;DHT22;69978;50.096;8.448;2024-01-30T04:45:37;2.50;99.90
31387;DHT22;69978;50.096;8.448;2024-01-30T04:48:02;2.50;99.90
31387;DHT22;69978;50.096;8.448;2024-01-30T04:50:28;2.50;99.90
31387;DHT22;69978;50.096;8.448;2024-01-30T04:52:54;2.50;99.90
31387;DHT22;69978;50.096;8.448;2024-01-30T04:55:19;2.50;99.90
31387;DHT22;69978;50.096;8.448;2024-01-30T04:57:45;2.50;99.90
31387;DHT22;69978;50.096;8.448;2024-01-30T05:00:11;2.50;99.90
31387;DHT22;69978;50.096;8.448;2024-01-30T05:02:38;2.50;99.90
31387;DHT22;69978;50.096;8.448;2024-01-30T05:05:04;2.50;99.90
31387;DHT22;69978;50.096;8.448;2024-01-30T05:07:29;2.50;99.90
31387;DHT22;69978;50.096;8.448;2024-01-30T05:09:55;2.40;99.90
31387;DHT22;69978;50.096;8.448;2024-01-30T05:12:21;2.40;99.90
31387;DHT22;69978;50.096;8.448;2024-01-30T05:14:47;2.40;99.90
31387;DHT22;69978;50.096;8.448;2024-01-30T05:17:12;2.40;99.90
31387;DHT22;69978;50.096;8.448;2024-01-30T05:19:38;2.40;99.90
31387;DHT22;69978;50.096;8.448;2024-01-30T05:22:04;2.40;99.90
31387;DHT22;69978;50.096;8.448;2024-01-30T05:24:30;2.40;99.90
31387;DHT22;69978;50.096;8.448;2024-01-30T05:26:55;2.40;99.90
31387;DHT22;69978;50.096;8.448;2024-01-30T05:29:21;2.40;99.90
31387;DHT22;69978;50.096;8.448;2024-01-30T05:31:46;2.30;99.90
31387;DHT22;69978;50.096;8.448;2024-01-30T05:34:12;2.30;99.90
31387;DHT22;69978;50.096;8.448;2024-01-30T05:36:38;2.30;99.90
31387;DHT22;69978;50.096;8.448;2024-01-30T05:39:03;2.30;99.90
31387;DHT22;69978;50.096;8.448;2024-01-30T05:41:29;2.30;99.90
31387;DHT22;69978;50.096;8.448;2024-01-30T05:43:55;2.30;99.90
31387;DHT22;69978;50.096;8.448;2024-01-30T05:46:20;2.40;99.90
31387;DHT22;69978;50.096;8.448;2024-01-30T05:48:46;2.30;99.90
31387;DHT22;69978;50.096;8.448;2024-01-30T05:51:11;2.30;99.90
31387;DHT22;69978;50.096;8.448;2024-01-30T05:53:37;2.30;99.90
31387;DHT22;69978;50.096;8.448;2024-01-30T05:56:03;2.30;99.90
31387;DHT22;69978;50.096;8.448;2024-01-30T05:58:29;2.20;99.90
31387;DHT22;69978;50.096;8.448;2024-01-30T06:00:56;2.20;99.90
31387;DHT22;69978;50.096;8.448;2024-01-30T06:03:22;2.10;99.90
31387;DHT22;69978;50.096;8.448;2024-01-30T06:05:48;2.10;99.90
31387;DHT22;69978;50.096;8.448;2024-01-30T06:08:13;2.20;99.90
31387;DHT22;69978;50.096;8.448;2024-01-30T06:10:39;2.20;99.90
31387;DHT22;69978;50.096;8.448;2024-01-30T06:13:05;2.20;99.90
31387;DHT22;69978;50.096;8.448;2024-01-30T06:15:31;2.20;99.90
31387;DHT22;69978;50.096;8.448;2024-01-30T06:17:58;2.20;99.90
31387;DHT22;69978;50.096;8.448;2024-01-30T06:20:24;2.20;99.90
31387;DHT22;69978;50.096;8.448;2024-01-30T06:22:49;2.20;99.90
31387;DHT22;69978;50.096;8.448;2024-01-30T06:25:15;2.20;99.90
31387;DHT22;69978;50.096;8.448;2024-01-30T06:27:42;2.20;99.90
31387;DHT22;69978;50.096;8.448;2024-01-30T06:30:08;2.20;99.90
31387;DHT22;69978;50.096;8.448;2024-01-30T06:32:35;2.20;99.90
31387;DHT22;69978;50.096;8.448;2024-01-30T06:35:01;2.20;99.90
31387;DHT22;69978;50.096;8.448;2024-01-30T06:37:27;2.20;99.90
31387;DHT22;69978;50.096;8.448;2024-01-30T06:39:52;2.10;99.90
31387;DHT22;69978;50.096;8.448;2024-01-30T06:42:18;2.10;99.90
31387;DHT22;69978;50.096;8.448;2024-01-30T06:44:44;2.10;99.90
31387;DHT22;69978;50.096;8.448;2024-01-30T06:47:10;2.10;99.90
31387;DHT22;69978;50.096;8.448;2024-01-30T06:49:35;2.20;99.90
31387;DHT22;69978;50.096;8.448;2024-01-30T06:52:05;2.10;99.90
31387;DHT22;69978;50.096;8.448;2024-01-30T06:54:31;2.10;99.90
31387;DHT22;69978;50.096;8.448;2024-01-30T06:56:56;2.10;99.90
31387;DHT22;69978;50.096;8.448;2024-01-30T06:59:22;2.10;99.90
31387;DHT22;69978;50.096;8.448;2024-01-30T07:01:47;2.10;99.90
31387;DHT22;69978;50.096;8.448;2024-01-30T07:04:13;2.10;99.90
31387;DHT22;69978;50.096;8.448;2024-01-30T07:06:39;2.10;99.90
31387;DHT22;69978;50.096;8.448;2024-01-30T07:09:04;2.10;99.90
31387;DHT22;69978;50.096;8.448;2024-01-30T07:11:30;2.10;99.90
31387;DHT22;69978;50.096;8.448;2024-01-30T07:13:56;2.10;99.90
31387;DHT22;69978;50.096;8.448;2024-01-30T07:16:22;2.20;99.90
31387;DHT22;69978;50.096;8.448;2024-01-30T07:18:48;2.30;99.90
31387;DHT22;69978;50.096;8.448;2024-01-30T07:21:14;2.30;99.90
31387;DHT22;69978;50.096;8.448;2024-01-30T07:23:40;2.30;99.90
31387;DHT22;69978;50.096;8.448;2024-01-30T07:26:07;2.40;99.90
31387;DHT22;69978;50.096;8.448;2024-01-30T07:28:34;2.40;99.90
31387;DHT22;69978;50.096;8.448;2024-01-30T07:31:00;2.50;99.90
31387;DHT22;69978;50.096;8.448;2024-01-30T07:33:25;2.50;99.90
31387;DHT22;69978;50.096;8.448;2024-01-30T07:35:54;2.50;99.90
31387;DHT22;69978;50.096;8.448;2024-01-30T07:38:20;2.50;99.90
31387;DHT22;69978;50.096;8.448;2024-01-30T07:40:46;2.50;99.90
31387;DHT22;69978;50.096;8.448;2024-01-30T07:43:11;2.60;99.90
31387;DHT22;69978;50.096;8.448;2024-01-30T07:45:37;2.60;99.90
31387;DHT22;69978;50.096;8.448;2024-01-30T07:48:06;2.70;99.90
31387;DHT22;69978;50.096;8.448;2024-01-30T07:50:32;2.80;99.90
31387;DHT22;69978;50.096;8.448;2024-01-30T07:52:59;2.80;99.90
31387;DHT22;69978;50.096;8.448;2024-01-30T07:55:25;2.80;99.90
31387;DHT22;69978;50.096;8.448;2024-01-30T07:57:54;2.80;99.90
31387;DHT22;69978;50.096;8.448;2024-01-30T08:00:21;2.90;99.90
31387;DHT22;69978;50.096;8.448;2024-01-30T08:02:47;2.90;99.90
31387;DHT22;69978;50.096;8.448;2024-01-30T08:05:13;3.00;99.90
31387;DHT22;69978;50.096;8.448;2024-01-30T08:07:40;3.00;99.90
31387;DHT22;69978;50.096;8.448;2024-01-30T08:10:07;3.00;99.90
31387;DHT22;69978;50.096;8.448;2024-01-30T08:12:33;3.10;99.90
31387;DHT22;69978;50.096;8.448;2024-01-30T08:14:58;3.10;99.90
31387;DHT22;69978;50.096;8.448;2024-01-30T08:17:24;3.10;99.90
31387;DHT22;69978;50.096;8.448;2024-01-30T08:19:49;3.20;99.90
31387;DHT22;69978;50.096;8.448;2024-01-30T08:22:15;3.20;99.90
31387;DHT22;69978;50.096;8.448;2024-01-30T08:24:41;3.30;99.90
31387;DHT22;69978;50.096;8.448;2024-01-30T08:27:07;3.30;99.90
31387;DHT22;69978;50.096;8.448;2024-01-30T08:29:35;3.30;99.90
31387;DHT22;69978;50.096;8.448;2024-01-30T08:32:01;3.40;99.90
31387;DHT22;69978;50.096;8.448;2024-01-30T08:34:27;3.50;99.90
31387;DHT22;69978;50.096;8.448;2024-01-30T08:36:52;3.50;99.90
31387;DHT22;69978;50.096;8.448;2024-01-30T08:39:18;3.60;99.90
31387;DHT22;69978;50.096;8.448;2024-01-30T08:41:44;3.60;99.90
31387;DHT22;69978;50.096;8.448;2024-01-30T08:44:10;3.70;99.90
31387;DHT22;69978;50.096;8.448;2024-01-30T08:46:36;3.70;99.90
31387;DHT22;69978;50.096;8.448;2024-01-30T08:49:02;3.80;99.90
31387;DHT22;69978;50.096;8.448;2024-01-30T08:51:29;3.80;99.90
31387;DHT22;69978;50.096;8.448;2024-01-30T08:53:55;3.90;99.90
31387;DHT22;69978;50.096;8.448;2024-01-30T08:56:21;3.90;99.90
31387;DHT22;69978;50.096;8.448;2024-01-30T08:58:46;3.80;99.90
31387;DHT22;69978;50.096;8.448;2024-01-30T09:01:12;3.90;99.90
31387;DHT22;69978;50.096;8.448;2024-01-30T09:03:37;3.80;99.90
31387;DHT22;69978;50.096;8.448;2024-01-30T09:06:11;3.90;99.90
31387;DHT22;69978;50.096;8.448;2024-01-30T09:08:37;3.90;99.90
31387;DHT22;69978;50.096;8.448;2024-01-30T09:11:13;3.90;99.90
31387;DHT22;69978;50.096;8.448;2024-01-30T09:13:39;3.90;99.90
31387;DHT22;69978;50.096;8.448;2024-01-30T09:16:05;3.90;99.90
31387;DHT22;69978;50.096;8.448;2024-01-30T09:18:31;3.90;99.90
31387;DHT22;69978;50.096;8.448;2024-01-30T09:20:56;4.00;99.90
31387;DHT22;69978;50.096;8.448;2024-01-30T09:23:27;3.90;99.90
31387;DHT22;69978;50.096;8.448;2024-01-30T09:25:52;3.90;99.90
31387;DHT22;69978;50.096;8.448;2024-01-30T09:28:20;3.90;99.90
31387;DHT22;69978;50.096;8.448;2024-01-30T09:30:46;3.90;99.90
31387;DHT22;69978;50.096;8.448;2024-01-30T09:33:11;3.90;99.90
31387;DHT22;69978;50.096;8.448;2024-01-30T09:35:37;3.90;99.90
31387;DHT22;69978;50.096;8.448;2024-01-30T09:38:03;4.00;99.90
31387;DHT22;69978;50.096;8.448;2024-01-30T09:40:28;4.00;99.90
31387;DHT22;69978;50.096;8.448;2024-01-30T09:42:54;4.10;99.90
31387;DHT22;69978;50.096;8.448;2024-01-30T09:45:24;4.20;99.90
31387;DHT22;69978;50.096;8.448;2024-01-30T09:47:50;4.20;99.90
31387;DHT22;69978;50.096;8.448;2024-01-30T09:50:16;4.20;99.90
31387;DHT22;69978;50.096;8.448;2024-01-30T09:52:46;4.30;99.90
31387;DHT22;69978;50.096;8.448;2024-01-30T09:55:12;4.30;99.90
31387;DHT22;69978;50.096;8.448;2024-01-30T09:57:38;4.30;99.90
31387;DHT22;69978;50.096;8.448;2024-01-30T10:00:05;4.30;99.90
31387;DHT22;69978;50.096;8.448;2024-01-30T10:02:35;4.30;99.90
31387;DHT22;69978;50.096;8.448;2024-01-30T10:05:02;4.30;99.90
31387;DHT22;69978;50.096;8.448;2024-01-30T10:07:27;4.30;99.90
31387;DHT22;69978;50.096;8.448;2024-01-30T10:09:53;4.30;99.90
31387;DHT22;69978;50.096;8.448;2024-01-30T10:12:22;4.40;99.90
31387;DHT22;69978;50.096;8.448;2024-01-30T10:14:47;4.40;99.90
31387;DHT22;69978;50.096;8.448;2024-01-30T10:17:13;4.40;99.90
31387;DHT22;69978;50.096;8.448;2024-01-30T10:19:40;4.50;99.90
31387;DHT22;69978;50.096;8.448;2024-01-30T10:22:05;4.50;99.90
31387;DHT22;69978;50.096;8.448;2024-01-30T10:24:33;4.50;99.90
31387;DHT22;69978;50.096;8.448;2024-01-30T10:26:58;4.50;99.90
31387;DHT22;69978;50.096;8.448;2024-01-30T10:29:24;4.60;99.90
31387;DHT22;69978;50.096;8.448;2024-01-30T10:32:02;4.60;99.90
31387;DHT22;69978;50.096;8.448;2024-01-30T10:34:28;4.60;99.90
31387;DHT22;69978;50.096;8.448;2024-01-30T10:37:10;4.70;99.90
31387;DHT22;69978;50.096;8.448;2024-01-30T10:39:39;4.80;99.90
31387;DHT22;69978;50.096;8.448;2024-01-30T10:42:06;4.80;99.90
31387;DHT22;69978;50.096;8.448;2024-01-30T15:02:34;8.00;99.90
31387;DHT22;69978;50.096;8.448;2024-01-30T15:05:00;7.90;99.90
31387;DHT22;69978;50.096;8.448;2024-01-30T15:07:26;7.90;99.90
31387;DHT22;69978;50.096;8.448;2024-01-30T15:09:53;7.90;99.90
31387;DHT22;69978;50.096;8.448;2024-01-30T15:12:18;8.00;99.90
31387;DHT22;69978;50.096;8.448;2024-01-30T15:14:44;8.00;99.90
31387;DHT22;69978;50.096;8.448;2024-01-30T15:17:19;8.00;99.90
31387;DHT22;69978;50.096;8.448;2024-01-30T15:19:46;8.00;99.90
31387;DHT22;69978;50.096;8.448;2024-01-30T15:22:12;8.00;99.90
31387;DHT22;69978;50.096;8.448;2024-01-30T15:24:38;7.90;99.90
31387;DHT22;69978;50.096;8.448;2024-01-30T15:27:04;8.00;99.90
31387;DHT22;69978;50.096;8.448;2024-01-30T15:29:31;8.00;99.90
31387;DHT22;69978;50.096;8.448;2024-01-30T15:31:58;8.00;99.90
31387;DHT22;69978;50.096;8.448;2024-01-30T15:34:24;8.00;99.90
31387;DHT22;69978;50.096;8.448;2024-01-30T15:36:50;8.00;99.90
31387;DHT22;69978;50.096;8.448;2024-01-30T15:39:15;7.90;99.90
31387;DHT22;69978;50.096;8.448;2024-01-30T15:41:43;8.00;99.90
31387;DHT22;69978;50.096;8.448;2024-01-30T15:44:09;8.00;99.90
31387;DHT22;69978;50.096;8.448;2024-01-30T15:46:34;8.00;99.90
31387;DHT22;69978;50.096;8.448;2024-01-30T15:49:00;8.00;99.90
31387;DHT22;69978;50.096;8.448;2024-01-30T15:51:26;8.00;99.90
31387;DHT22;69978;50.096;8.448;2024-01-30T15:53:52;8.00;99.90
31387;DHT22;69978;50.096;8.448;2024-01-30T15:56:19;8.10;99.90
31387;DHT22;69978;50.096;8.448;2024-01-30T15:58:47;8.10;99.90
31387;DHT22;69978;50.096;8.448;2024-01-30T16:01:15;8.00;99.90
31387;DHT22;69978;50.096;8.448;2024-01-30T16:03:42;8.00;99.90
31387;DHT22;69978;50.096;8.448;2024-01-30T16:06:11;8.00;99.90
31387;DHT22;69978;50.096;8.448;2024-01-30T16:08:36;8.00;99.90
31387;DHT22;69978;50.096;8.448;2024-01-30T16:11:02;7.90;99.90
31387;DHT22;69978;50.096;8.448;2024-01-30T16:13:28;7.90;99.90
31387;DHT22;69978;50.096;8.448;2024-01-30T16:15:54;8.00;99.90
31387;DHT22;69978;50.096;8.448;2024-01-30T16:18:19;7.90;99.90
31387;DHT22;69978;50.096;8.448;2024-01-30T16:20:45;7.90;99.90
31387;DHT22;69978;50.096;8.448;2024-01-30T16:23:11;7.90;99.90
31387;DHT22;69978;50.096;8.448;2024-01-30T16:25:36;7.90;99.90
31387;DHT22;69978;50.096;8.448;2024-01-30T16:28:02;7.90;99.90
31387;DHT22;69978;50.096;8.448;2024-01-30T16:30:28;7.90;99.90
31387;DHT22;69978;50.096;8.448;2024-01-30T16:32:54;7.90;99.90
31387;DHT22;69978;50.096;8.448;2024-01-30T16:35:19;7.90;99.90
31387;DHT22;69978;50.096;8.448;2024-01-30T16:37:45;7.90;99.90
31387;DHT22;69978;50.096;8.448;2024-01-30T16:40:12;7.90;99.90
31387;DHT22;69978;50.096;8.448;2024-01-30T16:42:37;7.80;99.90
31387;DHT22;69978;50.096;8.448;2024-01-30T16:45:04;7.80;99.90
31387;DHT22;69978;50.096;8.448;2024-01-30T16:47:29;7.80;99.90
31387;DHT22;69978;50.096;8.448;2024-01-30T16:49:55;7.80;99.90
31387;DHT22;69978;50.096;8.448;2024-01-30T16:52:23;7.80;99.90
31387;DHT22;69978;50.096;8.448;2024-01-30T16:54:51;7.80;99.90
31387;DHT22;69978;50.096;8.448;2024-01-30T16:57:17;7.80;99.90
31387;DHT22;69978;50.096;8.448;2024-01-30T16:59:43;7.80;99.90
31387;DHT22;69978;50.096;8.448;2024-01-30T17:02:08;7.80;99.90
31387;DHT22;69978;50.096;8.448;2024-01-30T17:04:34;7.80;99.90
31387;DHT22;69978;50.096;8.448;2024-01-30T17:07:00;7.70;99.90
31387;DHT22;69978;50.096;8.448;2024-01-30T17:09:25;7.70;99.90
31387;DHT22;69978;50.096;8.448;2024-01-30T17:11:51;7.70;99.90
31387;DHT22;69978;50.096;8.448;2024-01-30T17:14:17;7.70;99.90
31387;DHT22;69978;50.096;8.448;2024-01-30T17:16:43;7.60;99.90
31387;DHT22;69978;50.096;8.448;2024-01-30T17:19:11;7.60;99.90
31387;DHT22;69978;50.096;8.448;2024-01-30T17:21:36;7.60;99.90
31387;DHT22;69978;50.096;8.448;2024-01-30T17:24:02;7.60;99.90
31387;DHT22;69978;50.096;8.448;2024-01-30T17:26:28;7.60;99.90
31387;DHT22;69978;50.096;8.448;2024-01-30T17:28:54;7.60;99.90
31387;DHT22;69978;50.096;8.448;2024-01-30T17:31:21;7.60;99.90
31387;DHT22;69978;50.096;8.448;2024-01-30T17:33:46;7.50;99.90
31387;DHT22;69978;50.096;8.448;2024-01-30T17:36:12;7.50;99.90
31387;DHT22;69978;50.096;8.448;2024-01-30T17:38:39;7.50;99.90
31387;DHT22;69978;50.096;8.448;2024-01-30T17:41:05;7.50;99.90
31387;DHT22;69978;50.096;8.448;2024-01-30T17:43:30;7.50;99.90
31387;DHT22;69978;50.096;8.448;2024-01-30T17:45:56;7.50;99.90
31387;DHT22;69978;50.096;8.448;2024-01-30T17:48:22;7.50;99.90
31387;DHT22;69978;50.096;8.448;2024-01-30T17:50:47;7.50;99.90
31387;DHT22;69978;50.096;8.448;2024-01-30T17:53:13;7.50;99.90
31387;DHT22;69978;50.096;8.448;2024-01-30T17:55:40;7.50;99.90
31387;DHT22;69978;50.096;8.448;2024-01-30T17:58:06;7.50;99.90
31387;DHT22;69978;50.096;8.448;2024-01-30T18:00:32;7.60;99.90
31387;DHT22;69978;50.096;8.448;2024-01-30T18:02:57;7.60;99.90
31387;DHT22;69978;50.096;8.448;2024-01-30T18:05:24;7.60;99.90
31387;DHT22;69978;50.096;8.448;2024-01-30T18:07:50;7.60;99.90
31387;DHT22;69978;50.096;8.448;2024-01-30T18:10:15;7.70;99.90
31387;DHT22;69978;50.096;8.448;2024-01-30T18:12:45;7.70;99.90
31387;DHT22;69978;50.096;8.448;2024-01-30T18:15:10;7.80;99.90
31387;DHT22;69978;50.096;8.448;2024-01-30T18:17:37;7.80;99.90
31387;DHT22;69978;50.096;8.448;2024-01-30T18:20:03;7.90;99.90
31387;DHT22;69978;50.096;8.448;2024-01-30T18:22:37;7.90;99.90
31387;DHT22;69978;50.096;8.448;2024-01-30T18:25:07;7.90;99.90
31387;DHT22;69978;50.096;8.448;2024-01-30T18:27:33;7.90;99.90
31387;DHT22;69978;50.096;8.448;2024-01-30T18:29:58;7.90;99.90
31387;DHT22;69978;50.096;8.448;2024-01-30T18:32:24;7.90;99.90
31387;DHT22;69978;50.096;8.448;2024-01-30T18:34:50;7.90;99.90
31387;DHT22;69978;50.096;8.448;2024-01-30T18:37:15;8.00;99.90
31387;DHT22;69978;50.096;8.448;2024-01-30T18:39:41;8.00;99.90
31387;DHT22;69978;50.096;8.448;2024-01-30T18:42:08;8.00;99.90
31387;DHT22;69978;50.096;8.448;2024-01-30T18:44:34;8.00;99.90
31387;DHT22;69978;50.096;8.448;2024-01-30T18:46:59;8.00;99.90
31387;DHT22;69978;50.096;8.448;2024-01-30T18:49:25;8.00;99.90
31387;DHT22;69978;50.096;8.448;2024-01-30T18:51:50;8.00;99.90
31387;DHT22;69978;50.096;8.448;2024-01-30T18:54:20;8.00;99.90
31387;DHT22;69978;50.096;8.448;2024-01-30T18:56:46;8.00;99.90
31387;DHT22;69978;50.096;8.448;2024-01-30T18:59:12;8.00;99.90
31387;DHT22;69978;50.096;8.448;2024-01-30T19:01:43;8.00;99.90
31387;DHT22;69978;50.096;8.448;2024-01-30T19:04:08;8.00;99.90
31387;DHT22;69978;50.096;8.448;2024-01-30T19:06:35;8.10;99.90
31387;DHT22;69978;50.096;8.448;2024-01-30T19:09:01;8.10;99.90
31387;DHT22;69978;50.096;8.448;2024-01-30T19:11:28;8.10;99.90
31387;DHT22;69978;50.096;8.448;2024-01-30T19:13:54;8.20;99.90
31387;DHT22;69978;50.096;8.448;2024-01-30T19:16:19;8.20;99.90
31387;DHT22;69978;50.096;8.448;2024-01-30T19:18:45;8.20;99.90
31387;DHT22;69978;50.096;8.448;2024-01-30T19:21:14;8.30;99.90
31387;DHT22;69978;50.096;8.448;2024-01-30T19:23:40;8.30;99.90
31387;DHT22;69978;50.096;8.448;2024-01-30T19:26:07;8.30;99.90
31387;DHT22;69978;50.096;8.448;2024-01-30T19:28:32;8.30;99.90
31387;DHT22;69978;50.096;8.448;2024-01-30T19:30:58;8.30;99.90
31387;DHT22;69978;50.096;8.448;2024-01-30T19:33:26;8.30;99.90
31387;DHT22;69978;50.096;8.448;2024-01-30T19:35:52;8.30;99.90
31387;DHT22;69978;50.096;8.448;2024-01-30T19:38:18;8.30;99.90
31387;DHT22;69978;50.096;8.448;2024-01-30T19:40:44;8.30;99.90
31387;DHT22;69978;50.096;8.448;2024-01-30T19:43:10;8.40;99.90
31387;DHT22;69978;50.096;8.448;2024-01-30T19:45:35;8.30;99.90
31387;DHT22;69978;50.096;8.448;2024-01-30T19:48:01;8.40;99.90
31387;DHT22;69978;50.096;8.448;2024-01-30T19:50:26;8.40;99.90
31387;DHT22;69978;50.096;8.448;2024-01-30T19:52:52;8.40;99.90
31387;DHT22;69978;50.096;8.448;2024-01-30T19:55:18;8.40;99.90